Time;durP1;ratioP1;P1;durP2;ratioP2;P2;SDS_P1;SDS_P2;PMS_P1;PMS_P2;Temp;Humidity;BMP_temperature;BMP_pressure;BME280_temperature;BME280_humidity;BME280_pressure;Samples;Min_cycle;Max_cycle;Signal;HPM_P1;HPM_P2
2021/04/13 00:01:12;;;;;;;9.93;2.30;;;3.70;82.30;;;;;;5071487;28;20020;-78
2021/04/13 00:04:05;;;;;;;12.73;2.67;;;3.70;82.40;;;;;;5071837;28;20525;-78
2021/04/13 00:06:51;;;;;;;9.52;2.20;;;3.70;82.40;;;;;;5072251;28;20027;-78
2021/04/13 00:09:26;;;;;;;10.15;2.78;;;3.70;82.60;;;;;;5071621;28;20024;-78
2021/04/13 00:12:00;;;;;;;13.95;3.55;;;3.70;82.60;;;;;;5071199;28;20385;-78
2021/04/13 00:14:29;;;;;;;12.48;2.85;;;3.70;82.50;;;;;;5071696;28;20019;-78
2021/04/13 00:16:58;;;;;;;6.78;2.20;;;3.70;82.50;;;;;;5071995;28;20346;-78
2021/04/13 00:19:39;;;;;;;9.98;2.47;;;3.80;82.80;;;;;;5072088;28;20043;-78
2021/04/13 00:22:04;;;;;;;;;;;3.80;82.70;;;;;;5072529;28;20012;-78
2021/04/13 00:24:30;;;;;;;5.57;2.10;;;3.80;82.90;;;;;;5071971;28;20345;-77
2021/04/13 00:26:57;;;;;;;14.77;3.33;;;3.80;82.50;;;;;;5071734;28;20025;-77
2021/04/13 00:29:32;;;;;;;13.85;2.42;;;3.80;82.30;;;;;;5072036;28;20031;-78
2021/04/13 00:32:01;;;;;;;12.30;2.78;;;3.90;82.20;;;;;;5071823;28;20027;-78
2021/04/13 00:34:42;;;;;;;8.43;2.47;;;3.90;82.70;;;;;;5071819;28;20043;-78
2021/04/13 00:37:26;;;;;;;;;;;3.90;83.30;;;;;;5073420;28;20044;-78
2021/04/13 00:39:54;;;;;;;10.88;2.85;;;4.00;82.40;;;;;;5070900;28;19904;-78
2021/04/13 00:42:27;;;;;;;11.88;3.78;;;4.00;82.00;;;;;;5072379;28;20016;-78
2021/04/13 00:44:57;;;;;;;16.33;5.20;;;4.10;81.80;;;;;;5070930;28;20020;-78
2021/04/13 00:47:30;;;;;;;11.05;2.75;;;4.10;81.60;;;;;;5070919;28;20066;-78
2021/04/13 00:49:59;;;;;;;11.68;2.50;;;4.10;81.40;;;;;;5070752;28;20070;-78
2021/04/13 00:52:35;;;;;;;9.07;2.50;;;4.10;82.10;;;;;;5070977;28;20029;-78
2021/04/13 00:55:04;;;;;;;8.52;2.70;;;4.00;81.60;;;;;;5072795;28;20020;-79
2021/04/13 00:57:38;;;;;;;8.10;2.10;;;4.00;81.80;;;;;;5072570;28;20019;-79
2021/04/13 01:00:06;;;;;;;8.05;2.15;;;4.00;82.10;;;;;;5072404;28;20016;-78
2021/04/13 01:02:34;;;;;;;8.00;2.35;;;3.90;82.30;;;;;;5071032;28;20021;-79
2021/04/13 01:05:21;;;;;;;8.07;2.08;;;3.90;82.20;;;;;;5072485;28;20457;-79
2021/04/13 01:07:52;;;;;;;9.68;2.83;;;3.90;82.50;;;;;;5071444;28;20032;-79
2021/04/13 01:10:31;;;;;;;4.85;1.60;;;3.90;82.40;;;;;;5071548;28;20112;-79
2021/04/13 01:13:10;;;;;;;6.17;1.90;;;3.90;82.50;;;;;;5071397;28;20502;-78
2021/04/13 01:15:37;;;;;;;6.68;1.95;;;3.80;82.70;;;;;;5072754;28;20263;-77
2021/04/13 01:18:08;;;;;;;14.75;2.38;;;3.90;82.80;;;;;;5070857;28;20024;-78
2021/04/13 01:20:55;;;;;;;9.07;2.13;;;3.90;82.90;;;;;;5071127;28;20121;-78
2021/04/13 01:23:26;;;;;;;7.35;1.88;;;3.90;82.80;;;;;;5070686;28;20016;-77
2021/04/13 01:25:58;;;;;;;13.38;2.63;;;3.90;82.60;;;;;;5070615;28;20069;-77
2021/04/13 01:28:28;;;;;;;7.93;1.98;;;3.90;82.50;;;;;;5070970;28;20025;-77
2021/04/13 01:31:40;;;;;;;6.50;2.10;;;3.90;82.40;;;;;;5070864;28;20368;-77
2021/04/13 01:34:06;;;;;;;7.93;1.98;;;3.90;82.30;;;;;;5071482;28;20021;-78
2021/04/13 01:36:32;;;;;;;13.77;2.47;;;3.90;82.30;;;;;;5070968;28;20457;-78
2021/04/13 01:39:07;;;;;;;8.23;2.03;;;3.90;82.80;;;;;;5070638;28;20259;-77
2021/04/13 01:44:23;;;;;;;7.25;2.05;;;3.80;83.00;;;;;;5071975;28;20370;-77
2021/04/13 01:46:49;;;;;;;5.85;2.30;;;3.80;83.20;;;;;;5070566;28;20024;-78
2021/04/13 01:49:15;;;;;;;10.27;2.80;;;3.80;83.20;;;;;;5071688;28;20054;-78
2021/04/13 01:51:41;;;;;;;11.07;2.60;;;3.80;83.10;;;;;;5070442;28;20365;-77
2021/04/13 01:54:13;;;;;;;10.07;2.90;;;3.80;82.80;;;;;;5071664;28;20035;-78
2021/04/13 01:56:52;;;;;;;7.78;2.63;;;3.80;83.00;;;;;;5071826;28;20021;-79
2021/04/13 01:59:33;;;;;;;7.55;2.38;;;3.70;82.90;;;;;;5071800;28;20017;-78
2021/04/13 02:02:03;;;;;;;15.25;3.08;;;3.70;83.00;;;;;;5071262;28;20457;-76
2021/04/13 02:04:34;;;;;;;8.55;2.90;;;3.60;83.00;;;;;;5070220;28;20027;-77
2021/04/13 02:07:06;;;;;;;9.10;3.00;;;3.60;83.70;;;;;;5069969;28;20121;-78
2021/04/13 02:09:43;;;;;;;10.23;3.22;;;3.50;83.30;;;;;;5070144;28;20074;-78
2021/04/13 02:12:22;;;;;;;8.90;2.53;;;3.50;83.30;;;;;;5070067;28;20041;-78
2021/04/13 02:14:59;;;;;;;6.82;2.95;;;3.40;83.40;;;;;;5070178;28;20119;-77
2021/04/13 02:17:32;;;;;;;12.10;3.92;;;3.30;83.60;;;;;;5071718;28;20008;-78
2021/04/13 02:19:59;;;;;;;8.85;3.78;;;3.20;84.00;;;;;;5054656;28;20024;-78
2021/04/13 02:22:27;;;;;;;9.73;3.53;;;3.20;84.20;;;;;;5072221;28;20020;-78
2021/04/13 02:24:54;;;;;;;9.98;3.90;;;3.20;84.50;;;;;;5071819;28;20020;-78
2021/04/13 02:27:27;;;;;;;8.00;4.00;;;3.10;84.70;;;;;;5071004;28;20039;-78
2021/04/13 02:30:05;;;;;;;8.30;4.05;;;3.10;85.00;;;;;;5071442;28;20027;-78
2021/04/13 02:32:34;;;;;;;12.65;3.97;;;3.00;85.10;;;;;;5071030;28;20013;-79
2021/04/13 02:35:04;;;;;;;13.15;3.58;;;3.00;85.50;;;;;;5073514;28;20024;-79
2021/04/13 02:37:34;;;;;;;9.65;3.25;;;3.00;85.70;;;;;;5073290;28;20048;-79
2021/04/13 02:40:05;;;;;;;;;;;2.90;86.20;;;;;;5075472;28;20017;-78
2021/04/13 02:42:36;;;;;;;5.55;2.38;;;2.90;85.90;;;;;;5073656;28;19900;-78
2021/04/13 02:45:09;;;;;;;8.75;2.30;;;2.90;85.70;;;;;;5073499;28;20028;-79
2021/04/13 02:47:45;;;;;;;10.63;3.13;;;2.90;85.80;;;;;;5075136;28;20411;-78
2021/04/13 02:50:16;;;;;;;12.50;3.28;;;2.80;86.00;;;;;;5074735;28;20111;-79
2021/04/13 02:52:44;;;;;;;7.07;2.47;;;2.80;86.10;;;;;;5073491;28;20077;-79
2021/04/13 02:55:23;;;;;;;8.90;2.88;;;2.80;86.50;;;;;;5074722;28;20040;-78
2021/04/13 02:57:50;;;;;;;10.20;2.70;;;2.80;86.50;;;;;;5074950;28;20053;-78
2021/04/13 03:00:18;;;;;;;10.00;2.85;;;2.80;86.40;;;;;;5074234;28;20039;-78
2021/04/13 03:02:48;;;;;;;11.27;2.65;;;2.80;86.60;;;;;;5074000;28;20032;-79
2021/04/13 03:05:18;;;;;;;11.57;3.03;;;2.80;86.70;;;;;;5073798;28;20111;-79
2021/04/13 03:07:44;;;;;;;11.23;5.57;;;2.80;87.70;;;;;;5075067;28;20058;-78
2021/04/13 03:10:15;;;;;;;8.30;3.17;;;2.80;86.70;;;;;;5073803;28;20385;-78
2021/04/13 03:12:44;;;;;;;10.05;3.22;;;2.80;86.70;;;;;;5074846;28;20476;-78
2021/04/13 03:15:21;;;;;;;11.90;3.17;;;2.80;86.70;;;;;;5073057;28;20029;-78
2021/04/13 03:17:50;;;;;;;14.00;3.55;;;2.80;86.80;;;;;;5072779;28;20020;-78
2021/04/13 03:20:23;;;;;;;7.05;2.95;;;2.80;86.80;;;;;;5074142;28;20036;-79
2021/04/13 03:22:51;;;;;;;13.98;3.22;;;2.70;87.20;;;;;;5072736;28;20017;-79
2021/04/13 03:25:17;;;;;;;7.57;3.05;;;2.80;86.70;;;;;;5074116;28;20020;-79
2021/04/13 03:27:45;;;;;;;7.90;3.00;;;2.70;86.70;;;;;;5074073;28;20020;-79
2021/04/13 03:30:26;;;;;;;8.00;2.97;;;2.80;86.50;;;;;;5073040;28;20020;-79
2021/04/13 03:32:57;;;;;;;8.65;3.60;;;2.70;86.50;;;;;;5072867;28;20020;-79
2021/04/13 03:35:26;;;;;;;11.55;3.35;;;2.70;86.80;;;;;;5072997;28;20052;-79
2021/04/13 03:37:53;;;;;;;12.05;4.07;;;2.70;86.80;;;;;;5073764;28;20028;-79
2021/04/13 03:40:22;;;;;;;15.25;3.60;;;2.80;87.40;;;;;;5073957;28;20016;-79
2021/04/13 03:42:53;;;;;;;8.02;3.60;;;2.80;86.80;;;;;;5072369;28;20051;-78
2021/04/13 03:45:19;;;;;;;5.95;3.15;;;2.80;86.80;;;;;;5071827;28;20012;-78
2021/04/13 03:47:46;;;;;;;12.65;4.28;;;2.90;86.80;;;;;;5074046;28;20453;-79
2021/04/13 03:50:18;;;;;;;11.30;3.58;;;2.90;86.70;;;;;;5072154;28;20016;-79
2021/04/13 03:52:44;;;;;;;10.07;3.83;;;3.00;86.90;;;;;;5072846;28;20408;-79
2021/04/13 03:55:23;;;;;;;10.05;3.47;;;3.00;87.20;;;;;;5073872;28;20073;-78
2021/04/13 03:57:49;;;;;;;7.53;3.22;;;3.00;87.00;;;;;;5060130;28;20024;-77
2021/04/13 04:00:25;;;;;;;9.02;3.38;;;3.00;86.80;;;;;;5052740;28;20032;-78
2021/04/13 04:02:51;;;;;;;16.45;4.00;;;3.00;86.50;;;;;;5052272;28;20518;-79
2021/04/13 04:05:23;;;;;;;18.95;4.05;;;3.00;86.50;;;;;;5052153;28;20020;-78
2021/04/13 04:08:04;;;;;;;11.20;3.35;;;3.00;86.50;;;;;;5052425;28;20028;-78
2021/04/13 04:10:51;;;;;;;11.02;3.00;;;3.00;86.40;;;;;;5053625;28;20385;-78
2021/04/13 04:13:17;;;;;;;12.60;3.17;;;3.00;86.20;;;;;;5052435;28;20021;-78
2021/04/13 04:16:10;;;;;;;14.52;3.80;;;3.00;86.10;;;;;;5051981;28;20482;-78
2021/04/13 04:18:46;;;;;;;10.75;3.30;;;2.90;86.10;;;;;;5051329;28;20033;-78
2021/04/13 04:21:27;;;;;;;14.10;3.38;;;2.90;86.20;;;;;;5054370;28;20063;-78
2021/04/13 04:23:59;;;;;;;10.07;3.70;;;2.90;86.40;;;;;;5052400;28;20028;-78
2021/04/13 04:26:30;;;;;;;17.98;4.65;;;2.80;86.40;;;;;;5051680;28;20464;-78
2021/04/13 04:29:12;;;;;;;15.18;4.10;;;2.80;86.40;;;;;;5052855;28;20023;-78
2021/04/13 04:31:40;;;;;;;11.60;4.03;;;2.80;86.30;;;;;;5053042;28;20024;-78
2021/04/13 04:34:15;;;;;;;11.60;3.47;;;2.80;86.40;;;;;;5051479;28;20027;-77
2021/04/13 04:36:41;;;;;;;15.57;3.75;;;2.80;86.50;;;;;;5052853;28;20021;-77
2021/04/13 04:39:26;;;;;;;15.13;4.03;;;2.70;86.50;;;;;;5051338;28;20025;-77
2021/04/13 04:41:55;;;;;;;14.75;4.07;;;2.70;86.60;;;;;;5051143;28;20017;-77
2021/04/13 04:44:29;;;;;;;10.13;4.57;;;2.70;86.90;;;;;;5051396;28;20052;-77
2021/04/13 04:46:59;;;;;;;11.95;4.15;;;2.60;86.70;;;;;;5051125;28;20043;-77
2021/04/13 04:49:34;;;;;;;14.77;4.95;;;2.60;86.90;;;;;;5052858;28;20017;-77
2021/04/13 04:52:00;;;;;;;11.23;5.20;;;2.60;86.90;;;;;;5051079;28;20021;-78
2021/04/13 04:54:26;;;;;;;11.90;4.28;;;2.50;86.80;;;;;;5052364;28;20058;-78
2021/04/13 04:56:52;;;;;;;17.73;5.45;;;2.50;86.90;;;;;;5050815;28;20021;-78
2021/04/13 04:59:17;;;;;;;10.40;5.18;;;2.40;87.20;;;;;;5050878;28;20028;-78
2021/04/13 05:01:43;;;;;;;10.60;5.10;;;2.40;87.50;;;;;;5051144;28;20056;-78
2021/04/13 05:04:08;;;;;;;15.85;5.90;;;2.40;87.50;;;;;;5052311;28;20024;-77
2021/04/13 05:06:34;;;;;;;15.13;5.53;;;2.40;87.90;;;;;;5052526;28;20071;-77
2021/04/13 05:08:59;;;;;;;11.73;5.90;;;2.40;87.90;;;;;;5051169;28;20028;-77
2021/04/13 05:11:25;;;;;;;12.15;5.90;;;2.40;88.60;;;;;;5051563;28;20123;-76
2021/04/13 05:13:52;;;;;;;14.23;5.53;;;2.40;88.10;;;;;;5052643;28;20013;-79
2021/04/13 05:16:18;;;;;;;14.10;6.38;;;2.40;88.20;;;;;;5052372;28;20484;-79
2021/04/13 05:18:44;;;;;;;13.02;5.43;;;2.40;88.00;;;;;;5051784;28;20028;-78
2021/04/13 05:21:10;;;;;;;12.18;5.25;;;2.50;87.90;;;;;;5052505;28;20017;-80
2021/04/13 05:23:35;;;;;;;11.70;5.57;;;2.50;87.80;;;;;;5051676;28;20021;-80
2021/04/13 05:26:03;;;;;;;9.82;5.10;;;2.50;87.70;;;;;;5050558;28;20059;-80
2021/04/13 05:28:28;;;;;;;8.70;4.95;;;2.60;87.70;;;;;;5052085;28;20071;-79
2021/04/13 05:30:54;;;;;;;13.70;6.32;;;2.60;87.90;;;;;;5051958;28;20029;-78
2021/04/13 05:33:22;;;;;;;12.18;5.90;;;2.60;87.70;;;;;;5052000;28;20036;-79
2021/04/13 05:35:48;;;;;;;15.45;6.32;;;2.70;87.80;;;;;;5050973;28;20021;-79
2021/04/13 05:38:23;;;;;;;19.77;6.82;;;2.70;87.80;;;;;;5050605;28;20116;-79
2021/04/13 05:40:49;;;;;;;10.70;5.40;;;2.80;87.90;;;;;;5050945;28;20017;-79
2021/04/13 05:43:17;;;;;;;17.77;5.85;;;2.80;87.70;;;;;;5051988;28;20063;-79
2021/04/13 05:45:46;;;;;;;11.00;5.53;;;2.90;88.30;;;;;;5052145;28;20343;-78
2021/04/13 05:48:12;;;;;;;11.48;5.68;;;3.00;87.70;;;;;;5051518;28;20060;-78
2021/04/13 05:50:41;;;;;;;13.32;5.15;;;3.10;87.20;;;;;;5050502;28;20072;-78
2021/04/13 05:53:08;;;;;;;17.17;5.57;;;3.20;87.00;;;;;;5051805;28;20466;-79
2021/04/13 05:55:34;;;;;;;12.95;4.85;;;3.20;86.80;;;;;;5050769;28;20063;-78
2021/04/13 05:58:08;;;;;;;9.77;5.05;;;3.40;86.90;;;;;;5052005;28;20345;-78
2021/04/13 06:00:33;;;;;;;9.23;4.88;;;3.50;86.10;;;;;;5052111;28;20104;-78
2021/04/13 06:03:00;;;;;;;10.50;5.07;;;3.60;85.50;;;;;;5050472;28;20179;-78
2021/04/13 06:05:28;;;;;;;10.10;4.53;;;3.70;85.20;;;;;;5050315;28;20459;-79
2021/04/13 06:07:54;;;;;;;11.63;5.03;;;3.80;84.80;;;;;;5057010;28;20115;-79
2021/04/13 06:10:20;;;;;;;11.95;3.33;;;4.00;84.60;;;;;;5061597;28;20347;-79
2021/04/13 06:12:58;;;;;;;11.40;3.55;;;4.10;83.90;;;;;;5061541;28;20094;-79
2021/04/13 06:15:26;;;;;;;11.35;2.88;;;4.30;82.80;;;;;;5064161;28;20029;-79
2021/04/13 06:17:52;;;;;;;13.52;3.60;;;4.40;81.90;;;;;;5060406;28;20517;-79
2021/04/13 06:20:19;;;;;;;12.27;2.95;;;4.50;81.30;;;;;;5054206;28;20117;-78
2021/04/13 06:22:46;;;;;;;15.23;3.05;;;4.60;80.50;;;;;;5054330;28;20017;-78
2021/04/13 06:25:12;;;;;;;14.50;3.20;;;4.80;79.40;;;;;;5054151;28;20464;-78
2021/04/13 06:27:39;;;;;;;11.63;2.90;;;5.00;78.80;;;;;;5054397;28;20100;-79
2021/04/13 06:30:06;;;;;;;11.68;2.88;;;5.10;78.60;;;;;;5055080;28;20028;-79
2021/04/13 06:32:32;;;;;;;12.25;2.97;;;5.20;77.50;;;;;;5055594;28;20017;-79
2021/04/13 06:34:58;;;;;;;12.45;2.92;;;5.30;77.60;;;;;;5054369;28;20039;-80
2021/04/13 06:37:25;;;;;;;13.77;2.40;;;5.50;76.40;;;;;;5064776;28;20021;-79
2021/04/13 06:39:51;;;;;;;11.68;3.53;;;5.60;78.10;;;;;;5075654;28;20025;-79
2021/04/13 06:42:41;;;;;;;10.90;3.22;;;5.80;75.40;;;;;;5073785;28;20028;-79
2021/04/13 06:45:27;;;;;;;14.75;4.03;;;5.90;74.60;;;;;;5073442;28;20102;-79
2021/04/13 06:48:04;;;;;;;13.98;2.85;;;6.10;74.70;;;;;;5073841;28;20036;-79
2021/04/13 06:50:44;;;;;;;9.13;2.95;;;6.30;73.90;;;;;;5074901;28;20012;-80
2021/04/13 06:53:28;;;;;;;10.95;2.85;;;6.40;73.00;;;;;;5074259;28;20501;-78
2021/04/13 06:56:14;;;;;;;8.45;2.20;;;6.60;72.00;;;;;;5073666;28;20024;-78
2021/04/13 06:59:07;;;;;;;8.00;3.08;;;6.60;73.90;;;;;;5057361;28;20025;-78
2021/04/13 07:01:40;;;;;;;7.63;2.10;;;6.70;71.10;;;;;;5054605;28;20021;-79
2021/04/13 07:04:14;;;;;;;12.63;3.75;;;6.90;70.80;;;;;;5052891;28;20089;-78
2021/04/13 07:06:52;;;;;;;10.48;2.55;;;7.10;70.90;;;;;;5054601;28;20054;-79
2021/04/13 07:09:36;;;;;;;10.98;2.45;;;7.20;69.90;;;;;;5053377;28;20024;-77
2021/04/13 07:12:05;;;;;;;10.27;2.65;;;7.40;69.20;;;;;;5053431;28;20045;-77
2021/04/13 07:14:55;;;;;;;11.20;2.88;;;7.50;67.20;;;;;;5053170;28;20116;-78
2021/04/13 07:17:41;;;;;;;7.80;1.98;;;7.60;67.20;;;;;;5052376;28;20492;-78
2021/04/13 07:20:31;;;;;;;12.43;2.50;;;7.70;71.20;;;;;;5050981;28;20524;-78
2021/04/13 07:23:19;;;;;;;6.32;1.65;;;7.80;67.80;;;;;;5053988;28;20023;-77
2021/04/13 07:25:53;;;;;;;10.65;2.75;;;8.00;75.80;;;;;;5054182;28;20020;-79
2021/04/13 07:28:27;;;;;;;8.23;2.28;;;8.20;67.60;;;;;;5053973;28;20017;-85
2021/04/13 07:31:16;;;;;;;8.98;1.80;;;8.30;65.40;;;;;;5060266;28;20014;-77
2021/04/13 07:33:44;;;;;;;8.63;2.30;;;8.50;72.50;;;;;;5053689;28;20032;-81
2021/04/13 07:36:17;;;;;;;8.63;1.80;;;8.60;70.30;;;;;;5052645;28;20021;-79
2021/04/13 07:38:47;;;;;;;13.85;2.35;;;8.70;64.70;;;;;;5054569;28;20049;-79
2021/04/13 07:41:51;;;;;;;9.93;1.95;;;8.70;65.50;;;;;;5053381;28;20024;-79
2021/04/13 07:44:28;;;;;;;7.18;2.40;;;8.80;64.00;;;;;;5051838;28;20029;-80
2021/04/13 07:46:59;;;;;;;9.18;2.42;;;9.10;63.60;;;;;;5053687;28;20115;-80
2021/04/13 07:49:37;;;;;;;10.45;1.73;;;9.10;63.20;;;;;;5054024;28;20032;-80
2021/04/13 07:52:39;;;;;;;11.43;1.85;;;9.30;67.00;;;;;;5053271;28;20070;-81
2021/04/13 07:55:06;;;;;;;8.20;1.60;;;9.50;63.10;;;;;;5053776;28;20031;-80
2021/04/13 07:57:44;;;;;;;7.07;1.42;;;9.80;65.80;;;;;;5052850;28;20421;-80
2021/04/13 08:00:36;;;;;;;7.22;1.40;;;9.80;67.20;;;;;;5053909;28;20051;-80
2021/04/13 08:03:14;;;;;;;4.35;1.38;;;9.80;66.90;;;;;;5054517;28;20469;-81
2021/04/13 08:05:46;;;;;;;8.13;1.55;;;9.90;62.80;;;;;;5056410;28;20036;-85
2021/04/13 08:08:39;;;;;;;11.10;2.05;;;9.90;59.50;;;;;;5055685;28;20028;-84
2021/04/13 08:11:17;;;;;;;11.55;2.08;;;9.80;58.10;;;;;;5054255;28;20049;-78
2021/04/13 08:13:45;;;;;;;9.93;1.38;;;10.00;58.30;;;;;;5054313;28;20031;-85
2021/04/13 08:16:32;;;;;;;4.45;0.93;;;9.90;62.30;;;;;;5054379;28;20056;-85
2021/04/13 08:19:26;;;;;;;9.30;1.60;;;9.80;60.10;;;;;;5053310;28;20070;-81
2021/04/13 08:22:21;;;;;;;7.35;1.52;;;10.00;66.00;;;;;;5051683;28;20029;-78
2021/04/13 08:24:58;;;;;;;8.90;1.92;;;10.30;58.60;;;;;;5051871;28;20040;-81
2021/04/13 08:27:32;;;;;;;8.07;1.15;;;10.30;57.60;;;;;;5053968;28;20120;-81
2021/04/13 08:30:33;;;;;;;8.07;1.40;;;10.20;55.90;;;;;;5051613;28;20022;-77
2021/04/13 08:33:05;;;;;;;13.00;2.40;;;10.30;58.00;;;;;;5052599;28;20342;-78
2021/04/13 08:35:42;;;;;;;9.43;1.73;;;10.50;59.00;;;;;;5052234;28;20017;-78
2021/04/13 08:38:16;;;;;;;5.80;1.50;;;10.80;60.90;;;;;;5052009;28;20017;-77
2021/04/13 08:41:22;;;;;;;5.35;1.90;;;11.10;57.40;;;;;;5051360;28;20022;-78
2021/04/13 08:43:58;;;;;;;9.57;1.58;;;11.40;55.50;;;;;;5056584;28;20028;-81
2021/04/13 08:46:44;;;;;;;10.00;1.15;;;11.50;56.50;;;;;;5052925;28;20361;-81
2021/04/13 08:49:33;;;;;;;9.48;1.33;;;11.80;52.30;;;;;;5065732;28;20036;-80
2021/04/13 08:52:17;;;;;;;11.30;1.17;;;12.10;54.90;;;;;;5057005;28;20029;-82
2021/04/13 08:54:47;;;;;;;5.78;1.15;;;12.20;50.60;;;;;;5064615;28;20041;-79
2021/04/13 08:57:15;;;;;;;4.90;1.30;;;12.00;50.20;;;;;;5062958;28;20143;-82
2021/04/13 08:59:52;;;;;;;7.72;1.10;;;12.00;52.00;;;;;;5054889;28;20105;-82
2021/04/13 09:02:35;;;;;;;3.45;1.08;;;12.20;52.20;;;;;;5055016;28;20033;-83
2021/04/13 09:05:22;;;;;;;4.78;0.95;;;12.20;54.90;;;;;;5056810;28;20025;-82
2021/04/13 09:07:51;;;;;;;4.32;1.05;;;12.10;59.90;;;;;;5064189;28;20021;-82
2021/04/13 09:10:25;;;;;;;6.25;1.55;;;11.90;57.30;;;;;;5064597;28;20070;-83
2021/04/13 09:13:04;;;;;;;7.97;1.40;;;12.00;55.10;;;;;;5056343;28;20037;-82
2021/04/13 09:15:31;;;;;;;5.63;0.85;;;12.20;47.10;;;;;;5056701;28;20031;-83
2021/04/13 09:18:07;;;;;;;3.70;0.88;;;12.50;47.70;;;;;;5057559;28;20112;-83
2021/04/13 09:20:39;;;;;;;5.63;0.90;;;12.70;51.70;;;;;;5058391;28;20381;-83
2021/04/13 09:23:28;;;;;;;5.70;1.17;;;12.70;45.10;;;;;;5059832;28;20020;-82
2021/04/13 09:26:22;;;;;;;10.43;1.58;;;12.30;53.30;;;;;;5059396;28;20099;-83
2021/04/13 09:28:56;;;;;;;4.82;1.90;;;12.00;57.50;;;;;;5060625;28;20009;-82
2021/04/13 09:31:44;;;;;;;5.32;1.10;;;12.10;60.80;;;;;;5058493;28;20025;-81
2021/04/13 09:34:30;;;;;;;;;;;;;;;;;;;;;
2021/04/13 09:37:20;;;;;;;4.22;0.90;;;12.60;57.40;;;;;;5057285;28;20108;-80
2021/04/13 09:40:26;;;;;;;9.50;1.52;;;12.90;54.70;;;;;;5056147;28;20503;-81
2021/04/13 09:43:29;;;;;;;;;;;;;;;;;;;;;
2021/04/13 09:46:29;;;;;;;7.05;1.48;;;13.10;47.40;;;;;;5055849;28;20036;-81
2021/04/13 09:49:10;;;;;;;;;;;12.80;49.50;;;;;;5053662;28;20021;-81
2021/04/13 09:52:24;;;;;;;12.65;2.05;;;12.50;57.50;;;;;;5053569;28;20296;-81
2021/04/13 09:55:11;;;;;;;5.63;1.45;;;12.10;46.00;;;;;;5055918;28;20025;-82
2021/04/13 09:58:15;;;;;;;;;;;;;;;;;;;;;
2021/04/13 10:00:50;;;;;;;2.67;0.88;;;12.90;57.00;;;;;;5057435;28;20072;-81
2021/04/13 10:03:25;;;;;;;5.40;1.20;;;13.40;59.30;;;;;;5054551;28;20055;-82
2021/04/13 10:05:53;;;;;;;6.22;1.20;;;13.70;45.70;;;;;;5056036;28;20052;-82
2021/04/13 10:08:34;;;;;;;5.40;1.00;;;13.50;41.90;;;;;;5071761;28;20449;-81
2021/04/13 10:11:09;;;;;;;6.85;1.52;;;12.90;42.50;;;;;;5056129;28;20057;-82
2021/04/13 10:14:03;;;;;;;3.78;0.85;;;12.40;44.00;;;;;;5054121;28;20029;-81
2021/04/13 10:16:50;;;;;;;5.47;1.50;;;12.20;45.60;;;;;;5055536;28;20096;-82
2021/04/13 10:19:44;;;;;;;5.82;1.20;;;12.50;45.60;;;;;;5053804;28;20021;-82
2021/04/13 10:22:47;;;;;;;6.47;1.90;;;12.90;44.80;;;;;;5068492;28;20021;-82
2021/04/13 10:25:40;;;;;;;5.22;1.58;;;13.60;48.80;;;;;;5050849;28;20091;-82
2021/04/13 10:28:12;;;;;;;2.25;0.75;;;14.00;58.10;;;;;;5050397;28;20025;-82
2021/04/13 10:31:12;;;;;;;5.72;1.48;;;14.20;47.50;;;;;;5051298;28;20104;-82
2021/04/13 10:33:40;;;;;;;4.95;1.10;;;14.30;42.50;;;;;;5050247;28;20111;-80
2021/04/13 10:36:16;;;;;;;4.70;0.90;;;14.10;40.80;;;;;;5050333;28;20524;-80
2021/04/13 10:39:15;;;;;;;4.35;1.15;;;14.40;41.40;;;;;;5051635;28;20017;-79
2021/04/13 10:42:18;;;;;;;5.10;1.30;;;14.60;39.10;;;;;;5067502;28;20044;-79
2021/04/13 10:45:22;;;;;;;2.25;0.70;;;14.30;38.50;;;;;;5050666;28;20063;-83
2021/04/13 10:48:03;;;;;;;6.15;0.80;;;14.40;38.40;;;;;;5042491;28;20029;-82
2021/04/13 10:50:53;;;;;;;3.58;0.70;;;14.70;38.00;;;;;;5050260;28;20071;-83
2021/04/13 10:53:51;;;;;;;6.63;0.70;;;14.80;52.20;;;;;;5051253;28;20024;-80
2021/04/13 10:56:35;;;;;;;4.00;0.90;;;14.70;40.80;;;;;;5053549;28;20108;-79
2021/04/13 10:59:39;;;;;;;5.68;1.33;;;14.70;38.50;;;;;;5055764;28;20021;-80
2021/04/13 11:02:49;;;;;;;5.78;0.90;;;15.00;41.50;;;;;;5053892;28;20028;-79
2021/04/13 11:05:32;;;;;;;6.82;1.10;;;15.20;35.40;;;;;;5059530;28;20100;-77
2021/04/13 11:08:43;;;;;;;4.45;0.73;;;15.30;40.40;;;;;;5064499;28;20013;-80
2021/04/13 11:11:46;;;;;;;4.22;1.20;;;15.50;38.20;;;;;;5053442;28;20029;-81
2021/04/13 11:14:57;;;;;;;6.40;1.27;;;15.30;40.50;;;;;;5053551;28;20020;-80
2021/04/13 11:18:20;;;;;;;3.35;1.38;;;15.50;40.10;;;;;;5053030;28;20040;-80
2021/04/13 11:21:20;;;;;;;3.30;0.80;;;15.80;38.40;;;;;;5071987;28;20080;-81
2021/04/13 11:23:56;;;;;;;2.60;0.65;;;15.90;34.20;;;;;;5055020;28;20364;-80
2021/04/13 11:27:09;;;;;;;4.13;1.27;;;16.00;50.60;;;;;;5052503;28;20035;-80
2021/04/13 11:29:54;;;;;;;2.28;0.80;;;16.20;41.90;;;;;;5052758;28;20027;-79
2021/04/13 11:32:48;;;;;;;6.72;1.55;;;16.20;54.20;;;;;;5053179;28;20026;-78
2021/04/13 11:35:29;;;;;;;5.30;1.13;;;16.20;50.00;;;;;;5053166;28;20021;-79
2021/04/13 11:38:34;;;;;;;4.57;1.10;;;15.90;44.40;;;;;;5052861;28;20025;-79
2021/04/13 11:41:18;;;;;;;2.78;0.68;;;15.80;48.50;;;;;;5054208;28;20055;-80
2021/04/13 11:44:00;;;;;;;2.83;0.82;;;16.10;56.60;;;;;;5052631;28;20024;-79
2021/04/13 11:46:46;;;;;;;3.53;0.80;;;16.00;45.60;;;;;;5054134;28;20017;-79
2021/04/13 11:49:16;;;;;;;3.10;0.60;;;15.80;40.90;;;;;;5053199;28;20031;-80
2021/04/13 11:52:04;;;;;;;3.38;0.82;;;15.50;38.10;;;;;;5052522;28;20358;-79
2021/04/13 11:54:44;;;;;;;5.90;1.20;;;15.20;64.40;;;;;;5053659;28;20350;-79
2021/04/13 11:57:18;;;;;;;4.38;1.00;;;14.90;43.80;;;;;;5054132;28;20016;-79
2021/04/13 12:00:06;;;;;;;4.10;0.98;;;14.60;60.60;;;;;;5053685;28;20477;-80
2021/04/13 12:02:32;;;;;;;3.30;0.85;;;14.70;51.10;;;;;;5051881;28;20028;-80
2021/04/13 12:04:59;;;;;;;2.63;0.85;;;15.00;36.70;;;;;;5051760;28;20121;-79
2021/04/13 12:07:57;;;;;;;2.83;0.90;;;15.30;32.30;;;;;;5053553;28;20025;-80
2021/04/13 12:10:32;;;;;;;2.42;0.77;;;15.70;55.90;;;;;;5062782;28;20482;-79
2021/04/13 12:13:05;;;;;;;2.95;0.60;;;15.80;42.20;;;;;;5053974;28;20041;-80
2021/04/13 12:15:30;;;;;;;4.03;0.57;;;15.90;55.00;;;;;;5051906;28;20502;-78
2021/04/13 12:17:58;;;;;;;4.65;0.85;;;16.30;62.70;;;;;;5053438;28;20020;-79
2021/04/13 12:20:34;;;;;;;3.70;0.85;;;16.10;49.50;;;;;;5053410;28;20025;-79
2021/04/13 12:23:20;;;;;;;6.22;2.40;;;15.80;61.80;;;;;;5053393;28;20020;-82
2021/04/13 12:25:52;;;;;;;8.30;2.63;;;15.40;47.90;;;;;;5055895;28;20047;-79
2021/04/13 12:28:29;;;;;;;4.97;1.27;;;15.00;51.00;;;;;;5051819;28;20154;-79
2021/04/13 12:31:04;;;;;;;6.22;1.55;;;14.50;43.70;;;;;;5053149;28;20365;-80
2021/04/13 12:33:30;;;;;;;1.73;0.80;;;14.10;48.90;;;;;;5051987;28;20052;-80
2021/04/13 12:36:06;;;;;;;6.80;1.50;;;13.80;48.10;;;;;;5067370;28;20385;-81
2021/04/13 12:38:41;;;;;;;4.07;0.80;;;13.60;42.80;;;;;;5052023;28;20024;-82
2021/04/13 12:41:22;;;;;;;4.40;0.90;;;13.50;39.60;;;;;;5052345;28;20024;-83
2021/04/13 12:43:55;;;;;;;2.72;0.98;;;13.70;39.80;;;;;;5053275;28;20315;-83
2021/04/13 12:46:33;;;;;;;3.15;0.70;;;14.20;57.10;;;;;;5053963;28;20028;-83
2021/04/13 12:49:13;;;;;;;4.45;0.93;;;14.30;51.50;;;;;;5054689;28;20025;-82
2021/04/13 12:51:53;;;;;;;3.47;1.00;;;14.30;50.30;;;;;;5053645;28;20457;-82
2021/04/13 12:54:37;;;;;;;2.55;0.68;;;14.10;43.60;;;;;;5051978;28;20025;-83
2021/04/13 12:57:20;;;;;;;4.00;1.00;;;13.70;59.70;;;;;;5053381;28;20017;-83
2021/04/13 13:00:06;;;;;;;10.23;1.45;;;13.50;52.30;;;;;;5053515;28;20028;-83
2021/04/13 13:02:34;;;;;;;3.28;0.88;;;13.40;46.60;;;;;;5054722;28;20021;-83
2021/04/13 13:05:00;;;;;;;4.25;0.90;;;13.40;57.10;;;;;;5071244;28;20013;-82
2021/04/13 13:07:29;;;;;;;2.40;0.90;;;13.50;52.80;;;;;;5062947;28;20044;-82
2021/04/13 13:09:55;;;;;;;2.78;0.88;;;13.40;48.60;;;;;;5055217;28;20086;-83
2021/04/13 13:12:36;;;;;;;3.88;0.70;;;13.40;45.80;;;;;;5052177;28;20102;-83
2021/04/13 13:15:06;;;;;;;2.08;0.70;;;13.40;60.50;;;;;;5051840;28;20043;-83
2021/04/13 13:17:36;;;;;;;2.67;1.00;;;13.50;61.70;;;;;;5053675;28;20331;-85
2021/04/13 13:20:05;;;;;;;2.70;0.98;;;13.60;65.00;;;;;;5053575;28;20063;-80
2021/04/13 13:22:31;;;;;;;2.92;0.73;;;13.60;42.30;;;;;;5052184;28;20021;-80
2021/04/13 13:25:15;;;;;;;5.03;1.05;;;13.60;47.60;;;;;;5053555;28;20027;-79
2021/04/13 13:27:41;;;;;;;6.20;1.55;;;13.40;49.80;;;;;;5053763;28;20104;-80
2021/04/13 13:30:11;;;;;;;1.48;0.50;;;13.20;49.20;;;;;;5053201;28;20432;-80
2021/04/13 13:32:37;;;;;;;;;;;13.00;45.00;;;;;;5053184;28;20017;-81
2021/04/13 13:35:07;;;;;;;3.30;0.70;;;12.70;38.50;;;;;;5052452;28;19901;-80
2021/04/13 13:37:39;;;;;;;2.53;1.00;;;12.70;38.70;;;;;;5053083;28;20154;-80
2021/04/13 13:40:16;;;;;;;2.40;0.60;;;12.70;56.70;;;;;;5052283;28;20021;-80
2021/04/13 13:42:42;;;;;;;3.47;0.73;;;12.80;51.90;;;;;;5052361;28;20032;-80
2021/04/13 13:45:27;;;;;;;3.95;0.95;;;13.30;46.90;;;;;;5053138;28;20151;-79